sensor_id;sensor_type;location;lat;lon;timestamp;P1;durP1;ratioP1;P2;durP2;ratioP2
11998;SDS011;40817;51.520;9.954;2022-10-22T00:00:15;6.03;;;3.10;;
11998;SDS011;40817;51.520;9.954;2022-10-22T00:02:43;7.28;;;3.45;;
11998;SDS011;40817;51.520;9.954;2022-10-22T00:05:12;4.72;;;2.92;;
11998;SDS011;40817;51.520;9.954;2022-10-22T00:07:40;7.43;;;3.03;;
11998;SDS011;40817;51.520;9.954;2022-10-22T00:10:08;4.72;;;2.75;;
11998;SDS011;40817;51.520;9.954;2022-10-22T00:12:36;8.70;;;2.80;;
11998;SDS011;40817;51.520;9.954;2022-10-22T00:15:05;5.97;;;2.72;;
11998;SDS011;40817;51.520;9.954;2022-10-22T00:17:34;8.00;;;3.28;;
11998;SDS011;40817;51.520;9.954;2022-10-22T00:20:02;5.25;;;2.80;;
11998;SDS011;40817;51.520;9.954;2022-10-22T00:22:32;5.00;;;2.58;;
11998;SDS011;40817;51.520;9.954;2022-10-22T00:25:00;5.13;;;2.88;;
11998;SDS011;40817;51.520;9.954;2022-10-22T00:27:27;4.47;;;2.80;;
11998;SDS011;40817;51.520;9.954;2022-10-22T00:29:55;5.85;;;3.17;;
11998;SDS011;40817;51.520;9.954;2022-10-22T00:32:23;6.70;;;3.25;;
11998;SDS011;40817;51.520;9.954;2022-10-22T00:34:50;5.28;;;2.97;;
11998;SDS011;40817;51.520;9.954;2022-10-22T00:37:18;3.83;;;2.80;;
11998;SDS011;40817;51.520;9.954;2022-10-22T00:39:46;7.85;;;3.20;;
11998;SDS011;40817;51.520;9.954;2022-10-22T00:42:15;6.90;;;3.13;;
11998;SDS011;40817;51.520;9.954;2022-10-22T00:45:07;5.68;;;2.90;;
11998;SDS011;40817;51.520;9.954;2022-10-22T00:47:51;6.93;;;3.03;;
11998;SDS011;40817;51.520;9.954;2022-10-22T00:50:27;4.50;;;2.50;;
11998;SDS011;40817;51.520;9.954;2022-10-22T00:53:00;8.68;;;3.10;;
11998;SDS011;40817;51.520;9.954;2022-10-22T00:55:32;6.40;;;2.80;;
11998;SDS011;40817;51.520;9.954;2022-10-22T00:58:00;5.93;;;2.70;;
11998;SDS011;40817;51.520;9.954;2022-10-22T01:00:28;7.60;;;3.40;;
11998;SDS011;40817;51.520;9.954;2022-10-22T01:02:56;4.10;;;2.88;;
11998;SDS011;40817;51.520;9.954;2022-10-22T01:05:25;5.30;;;2.97;;
11998;SDS011;40817;51.520;9.954;2022-10-22T01:07:54;5.43;;;2.70;;
11998;SDS011;40817;51.520;9.954;2022-10-22T01:10:25;5.93;;;3.20;;
11998;SDS011;40817;51.520;9.954;2022-10-22T01:13:16;4.32;;;2.50;;
11998;SDS011;40817;51.520;9.954;2022-10-22T01:16:03;4.72;;;2.80;;
11998;SDS011;40817;51.520;9.954;2022-10-22T01:18:45;8.15;;;3.15;;
11998;SDS011;40817;51.520;9.954;2022-10-22T01:21:23;5.60;;;2.95;;
11998;SDS011;40817;51.520;9.954;2022-10-22T01:24:08;5.75;;;2.92;;
11998;SDS011;40817;51.520;9.954;2022-10-22T01:27:05;4.82;;;2.42;;
11998;SDS011;40817;51.520;9.954;2022-10-22T01:29:53;4.97;;;2.90;;
11998;SDS011;40817;51.520;9.954;2022-10-22T01:32:28;5.85;;;2.90;;
11998;SDS011;40817;51.520;9.954;2022-10-22T01:35:03;6.38;;;3.10;;
11998;SDS011;40817;51.520;9.954;2022-10-22T01:37:37;4.13;;;3.17;;
11998;SDS011;40817;51.520;9.954;2022-10-22T01:40:11;5.20;;;3.28;;
11998;SDS011;40817;51.520;9.954;2022-10-22T01:42:52;4.80;;;3.03;;
11998;SDS011;40817;51.520;9.954;2022-10-22T01:45:26;7.00;;;3.30;;
11998;SDS011;40817;51.520;9.954;2022-10-22T01:48:01;7.22;;;3.33;;
11998;SDS011;40817;51.520;9.954;2022-10-22T01:51:00;6.85;;;3.80;;
11998;SDS011;40817;51.520;9.954;2022-10-22T01:53:49;8.25;;;4.03;;
11998;SDS011;40817;51.520;9.954;2022-10-22T01:56:26;5.78;;;3.42;;
11998;SDS011;40817;51.520;9.954;2022-10-22T01:59:11;6.97;;;3.35;;
11998;SDS011;40817;51.520;9.954;2022-10-22T02:01:52;5.45;;;3.63;;
11998;SDS011;40817;51.520;9.954;2022-10-22T02:04:25;7.03;;;3.72;;
11998;SDS011;40817;51.520;9.954;2022-10-22T02:07:00;5.85;;;3.65;;
11998;SDS011;40817;51.520;9.954;2022-10-22T02:09:34;6.47;;;3.78;;
11998;SDS011;40817;51.520;9.954;2022-10-22T02:12:03;5.03;;;3.38;;
11998;SDS011;40817;51.520;9.954;2022-10-22T02:14:34;4.63;;;3.03;;
11998;SDS011;40817;51.520;9.954;2022-10-22T02:17:07;5.20;;;3.40;;
11998;SDS011;40817;51.520;9.954;2022-10-22T02:19:40;7.97;;;3.75;;
11998;SDS011;40817;51.520;9.954;2022-10-22T02:22:16;6.82;;;3.80;;
11998;SDS011;40817;51.520;9.954;2022-10-22T02:24:44;4.40;;;3.42;;
11998;SDS011;40817;51.520;9.954;2022-10-22T02:27:15;10.75;;;4.35;;
11998;SDS011;40817;51.520;9.954;2022-10-22T02:29:53;7.38;;;3.58;;
11998;SDS011;40817;51.520;9.954;2022-10-22T02:32:29;5.65;;;3.58;;
11998;SDS011;40817;51.520;9.954;2022-10-22T02:35:03;4.38;;;2.97;;
11998;SDS011;40817;51.520;9.954;2022-10-22T02:37:35;5.47;;;3.80;;
11998;SDS011;40817;51.520;9.954;2022-10-22T02:40:04;5.07;;;3.22;;
11998;SDS011;40817;51.520;9.954;2022-10-22T02:42:33;5.82;;;3.60;;
11998;SDS011;40817;51.520;9.954;2022-10-22T02:45:02;5.40;;;3.38;;
11998;SDS011;40817;51.520;9.954;2022-10-22T02:47:32;6.13;;;3.70;;
11998;SDS011;40817;51.520;9.954;2022-10-22T02:50:00;5.63;;;3.35;;
11998;SDS011;40817;51.520;9.954;2022-10-22T02:52:27;6.40;;;3.58;;
11998;SDS011;40817;51.520;9.954;2022-10-22T02:54:55;6.70;;;4.00;;
11998;SDS011;40817;51.520;9.954;2022-10-22T02:57:22;5.93;;;3.33;;
11998;SDS011;40817;51.520;9.954;2022-10-22T02:59:50;5.53;;;3.17;;
11998;SDS011;40817;51.520;9.954;2022-10-22T03:02:17;7.38;;;3.50;;
11998;SDS011;40817;51.520;9.954;2022-10-22T03:04:46;6.43;;;3.42;;
11998;SDS011;40817;51.520;9.954;2022-10-22T03:07:14;6.80;;;3.55;;
11998;SDS011;40817;51.520;9.954;2022-10-22T03:09:42;9.95;;;4.05;;
11998;SDS011;40817;51.520;9.954;2022-10-22T03:12:09;4.30;;;3.17;;
11998;SDS011;40817;51.520;9.954;2022-10-22T03:14:37;5.88;;;3.90;;
11998;SDS011;40817;51.520;9.954;2022-10-22T03:17:04;9.27;;;4.50;;
11998;SDS011;40817;51.520;9.954;2022-10-22T03:19:32;7.88;;;4.78;;
11998;SDS011;40817;51.520;9.954;2022-10-22T03:22:01;6.32;;;4.32;;
11998;SDS011;40817;51.520;9.954;2022-10-22T03:24:43;9.05;;;4.97;;
11998;SDS011;40817;51.520;9.954;2022-10-22T03:27:14;7.80;;;4.30;;
11998;SDS011;40817;51.520;9.954;2022-10-22T03:29:45;4.70;;;3.83;;
11998;SDS011;40817;51.520;9.954;2022-10-22T03:32:14;6.50;;;4.20;;
11998;SDS011;40817;51.520;9.954;2022-10-22T03:34:42;4.43;;;3.65;;
11998;SDS011;40817;51.520;9.954;2022-10-22T03:37:11;6.45;;;4.00;;
11998;SDS011;40817;51.520;9.954;2022-10-22T03:39:39;10.10;;;4.90;;
11998;SDS011;40817;51.520;9.954;2022-10-22T03:42:06;6.90;;;4.15;;
11998;SDS011;40817;51.520;9.954;2022-10-22T03:44:34;8.23;;;5.13;;
11998;SDS011;40817;51.520;9.954;2022-10-22T03:47:04;6.55;;;4.63;;
11998;SDS011;40817;51.520;9.954;2022-10-22T03:49:32;7.68;;;4.60;;
11998;SDS011;40817;51.520;9.954;2022-10-22T03:52:03;10.20;;;4.72;;
11998;SDS011;40817;51.520;9.954;2022-10-22T03:54:34;8.75;;;4.53;;
11998;SDS011;40817;51.520;9.954;2022-10-22T03:57:02;6.68;;;4.72;;
11998;SDS011;40817;51.520;9.954;2022-10-22T03:59:33;10.13;;;4.90;;
11998;SDS011;40817;51.520;9.954;2022-10-22T04:02:01;8.55;;;4.55;;
11998;SDS011;40817;51.520;9.954;2022-10-22T04:04:29;5.95;;;4.55;;
11998;SDS011;40817;51.520;9.954;2022-10-22T04:06:57;8.23;;;4.70;;
11998;SDS011;40817;51.520;9.954;2022-10-22T04:09:25;5.97;;;5.30;;
11998;SDS011;40817;51.520;9.954;2022-10-22T04:11:54;6.45;;;4.68;;
11998;SDS011;40817;51.520;9.954;2022-10-22T04:14:21;5.97;;;4.47;;
11998;SDS011;40817;51.520;9.954;2022-10-22T04:16:49;10.02;;;5.20;;
11998;SDS011;40817;51.520;9.954;2022-10-22T04:19:16;8.02;;;5.10;;
11998;SDS011;40817;51.520;9.954;2022-10-22T04:21:44;9.05;;;4.88;;
11998;SDS011;40817;51.520;9.954;2022-10-22T04:24:11;9.77;;;5.07;;
11998;SDS011;40817;51.520;9.954;2022-10-22T04:26:39;7.70;;;4.70;;
11998;SDS011;40817;51.520;9.954;2022-10-22T04:29:08;7.03;;;4.38;;
11998;SDS011;40817;51.520;9.954;2022-10-22T04:31:36;7.00;;;4.75;;
11998;SDS011;40817;51.520;9.954;2022-10-22T04:34:04;10.55;;;5.18;;
11998;SDS011;40817;51.520;9.954;2022-10-22T04:36:31;6.32;;;4.95;;
11998;SDS011;40817;51.520;9.954;2022-10-22T04:39:00;7.65;;;4.72;;
11998;SDS011;40817;51.520;9.954;2022-10-22T04:41:29;8.32;;;5.32;;
11998;SDS011;40817;51.520;9.954;2022-10-22T04:43:59;9.30;;;4.60;;
11998;SDS011;40817;51.520;9.954;2022-10-22T04:46:29;7.55;;;4.90;;
11998;SDS011;40817;51.520;9.954;2022-10-22T04:48:59;6.65;;;5.72;;
11998;SDS011;40817;51.520;9.954;2022-10-22T04:51:28;6.45;;;4.97;;
11998;SDS011;40817;51.520;9.954;2022-10-22T04:53:56;7.95;;;5.00;;
11998;SDS011;40817;51.520;9.954;2022-10-22T04:56:25;7.82;;;4.55;;
11998;SDS011;40817;51.520;9.954;2022-10-22T04:58:56;7.18;;;4.57;;
11998;SDS011;40817;51.520;9.954;2022-10-22T05:01:26;6.85;;;4.95;;
11998;SDS011;40817;51.520;9.954;2022-10-22T05:03:58;5.65;;;5.10;;
11998;SDS011;40817;51.520;9.954;2022-10-22T05:06:28;8.77;;;4.95;;
11998;SDS011;40817;51.520;9.954;2022-10-22T05:09:12;8.10;;;4.57;;
11998;SDS011;40817;51.520;9.954;2022-10-22T05:11:44;9.50;;;4.63;;
11998;SDS011;40817;51.520;9.954;2022-10-22T05:14:14;11.27;;;5.55;;
11998;SDS011;40817;51.520;9.954;2022-10-22T05:16:45;7.70;;;4.45;;
11998;SDS011;40817;51.520;9.954;2022-10-22T05:19:15;7.35;;;4.60;;
11998;SDS011;40817;51.520;9.954;2022-10-22T05:21:46;9.13;;;4.40;;
11998;SDS011;40817;51.520;9.954;2022-10-22T05:24:14;8.13;;;4.47;;
11998;SDS011;40817;51.520;9.954;2022-10-22T05:26:42;10.25;;;5.18;;
11998;SDS011;40817;51.520;9.954;2022-10-22T05:29:10;6.47;;;4.35;;
11998;SDS011;40817;51.520;9.954;2022-10-22T05:31:38;7.13;;;4.50;;
11998;SDS011;40817;51.520;9.954;2022-10-22T05:34:07;7.95;;;4.57;;
11998;SDS011;40817;51.520;9.954;2022-10-22T05:36:34;6.60;;;4.20;;
11998;SDS011;40817;51.520;9.954;2022-10-22T05:39:02;8.85;;;4.95;;
11998;SDS011;40817;51.520;9.954;2022-10-22T05:41:31;5.00;;;4.30;;
11998;SDS011;40817;51.520;9.954;2022-10-22T05:44:01;6.18;;;4.45;;
11998;SDS011;40817;51.520;9.954;2022-10-22T05:46:32;5.90;;;4.47;;
11998;SDS011;40817;51.520;9.954;2022-10-22T05:49:02;9.30;;;4.22;;
11998;SDS011;40817;51.520;9.954;2022-10-22T05:51:34;7.57;;;4.35;;
11998;SDS011;40817;51.520;9.954;2022-10-22T05:54:05;7.50;;;4.38;;
11998;SDS011;40817;51.520;9.954;2022-10-22T05:56:35;5.93;;;4.15;;
11998;SDS011;40817;51.520;9.954;2022-10-22T05:59:03;4.47;;;4.03;;
11998;SDS011;40817;51.520;9.954;2022-10-22T06:01:32;7.88;;;4.40;;
11998;SDS011;40817;51.520;9.954;2022-10-22T06:04:02;8.75;;;4.00;;
11998;SDS011;40817;51.520;9.954;2022-10-22T06:06:34;7.63;;;3.65;;
11998;SDS011;40817;51.520;9.954;2022-10-22T06:09:09;7.85;;;3.80;;
11998;SDS011;40817;51.520;9.954;2022-10-22T06:11:41;5.25;;;3.38;;
11998;SDS011;40817;51.520;9.954;2022-10-22T06:14:09;9.32;;;3.72;;
11998;SDS011;40817;51.520;9.954;2022-10-22T06:16:37;6.88;;;4.22;;
11998;SDS011;40817;51.520;9.954;2022-10-22T06:19:06;6.10;;;3.80;;
11998;SDS011;40817;51.520;9.954;2022-10-22T06:21:37;4.70;;;3.78;;
11998;SDS011;40817;51.520;9.954;2022-10-22T06:24:05;6.57;;;4.38;;
11998;SDS011;40817;51.520;9.954;2022-10-22T06:26:34;6.60;;;4.05;;
11998;SDS011;40817;51.520;9.954;2022-10-22T06:29:02;8.88;;;4.35;;
11998;SDS011;40817;51.520;9.954;2022-10-22T06:31:31;9.38;;;4.20;;
11998;SDS011;40817;51.520;9.954;2022-10-22T06:34:01;8.30;;;4.15;;
11998;SDS011;40817;51.520;9.954;2022-10-22T06:36:30;6.15;;;4.15;;
11998;SDS011;40817;51.520;9.954;2022-10-22T06:38:59;9.93;;;4.93;;
11998;SDS011;40817;51.520;9.954;2022-10-22T06:41:27;8.60;;;5.07;;
11998;SDS011;40817;51.520;9.954;2022-10-22T06:43:54;11.52;;;5.05;;
11998;SDS011;40817;51.520;9.954;2022-10-22T06:46:24;7.93;;;4.57;;
11998;SDS011;40817;51.520;9.954;2022-10-22T06:48:53;9.10;;;3.95;;
11998;SDS011;40817;51.520;9.954;2022-10-22T06:51:24;6.05;;;4.10;;
11998;SDS011;40817;51.520;9.954;2022-10-22T06:53:53;9.65;;;4.63;;
11998;SDS011;40817;51.520;9.954;2022-10-22T06:56:25;8.07;;;5.05;;
11998;SDS011;40817;51.520;9.954;2022-10-22T06:58:55;8.48;;;5.15;;
11998;SDS011;40817;51.520;9.954;2022-10-22T07:01:25;9.60;;;5.15;;
11998;SDS011;40817;51.520;9.954;2022-10-22T07:03:57;8.32;;;4.70;;
11998;SDS011;40817;51.520;9.954;2022-10-22T07:06:25;11.20;;;5.18;;
11998;SDS011;40817;51.520;9.954;2022-10-22T07:08:55;9.30;;;5.50;;
11998;SDS011;40817;51.520;9.954;2022-10-22T07:11:26;7.88;;;5.63;;
11998;SDS011;40817;51.520;9.954;2022-10-22T07:13:58;6.85;;;5.03;;
11998;SDS011;40817;51.520;9.954;2022-10-22T07:16:26;8.57;;;5.00;;
11998;SDS011;40817;51.520;9.954;2022-10-22T07:18:54;9.70;;;5.50;;
11998;SDS011;40817;51.520;9.954;2022-10-22T07:21:21;6.38;;;4.80;;
11998;SDS011;40817;51.520;9.954;2022-10-22T07:23:50;6.88;;;4.90;;
11998;SDS011;40817;51.520;9.954;2022-10-22T07:26:18;7.68;;;5.30;;
11998;SDS011;40817;51.520;9.954;2022-10-22T07:28:47;10.15;;;5.25;;
11998;SDS011;40817;51.520;9.954;2022-10-22T07:31:17;7.93;;;5.65;;
11998;SDS011;40817;51.520;9.954;2022-10-22T07:33:45;13.40;;;5.57;;
11998;SDS011;40817;51.520;9.954;2022-10-22T07:36:14;7.47;;;4.90;;
11998;SDS011;40817;51.520;9.954;2022-10-22T07:38:43;9.13;;;5.10;;
11998;SDS011;40817;51.520;9.954;2022-10-22T07:41:11;7.75;;;5.18;;
11998;SDS011;40817;51.520;9.954;2022-10-22T07:43:40;7.68;;;5.50;;
11998;SDS011;40817;51.520;9.954;2022-10-22T07:46:09;6.93;;;4.90;;
11998;SDS011;40817;51.520;9.954;2022-10-22T07:48:38;7.70;;;4.85;;
11998;SDS011;40817;51.520;9.954;2022-10-22T07:51:06;8.43;;;5.07;;
11998;SDS011;40817;51.520;9.954;2022-10-22T07:53:34;8.80;;;4.97;;
11998;SDS011;40817;51.520;9.954;2022-10-22T07:56:02;9.30;;;5.75;;
11998;SDS011;40817;51.520;9.954;2022-10-22T07:58:30;9.00;;;5.35;;
11998;SDS011;40817;51.520;9.954;2022-10-22T08:00:58;8.15;;;4.70;;
11998;SDS011;40817;51.520;9.954;2022-10-22T08:03:31;8.18;;;5.75;;
11998;SDS011;40817;51.520;9.954;2022-10-22T08:06:00;10.55;;;6.22;;
11998;SDS011;40817;51.520;9.954;2022-10-22T08:08:28;11.25;;;6.75;;
11998;SDS011;40817;51.520;9.954;2022-10-22T08:10:59;9.05;;;6.35;;
11998;SDS011;40817;51.520;9.954;2022-10-22T08:13:28;10.15;;;6.25;;
11998;SDS011;40817;51.520;9.954;2022-10-22T08:15:56;11.35;;;6.03;;
11998;SDS011;40817;51.520;9.954;2022-10-22T08:18:25;10.02;;;6.15;;
11998;SDS011;40817;51.520;9.954;2022-10-22T08:20:56;10.27;;;5.97;;
11998;SDS011;40817;51.520;9.954;2022-10-22T08:23:23;9.23;;;5.63;;
11998;SDS011;40817;51.520;9.954;2022-10-22T08:25:52;9.05;;;4.70;;
11998;SDS011;40817;51.520;9.954;2022-10-22T08:28:19;8.18;;;5.43;;
11998;SDS011;40817;51.520;9.954;2022-10-22T08:30:46;8.85;;;4.63;;
11998;SDS011;40817;51.520;9.954;2022-10-22T08:33:14;10.05;;;4.90;;
11998;SDS011;40817;51.520;9.954;2022-10-22T08:35:46;8.25;;;5.50;;
11998;SDS011;40817;51.520;9.954;2022-10-22T08:38:16;7.90;;;5.13;;
11998;SDS011;40817;51.520;9.954;2022-10-22T08:40:46;7.88;;;4.90;;
11998;SDS011;40817;51.520;9.954;2022-10-22T08:43:24;8.02;;;4.70;;
11998;SDS011;40817;51.520;9.954;2022-10-22T08:46:51;6.85;;;3.88;;
11998;SDS011;40817;51.520;9.954;2022-10-22T08:49:42;11.20;;;4.68;;
11998;SDS011;40817;51.520;9.954;2022-10-22T08:52:10;11.85;;;4.85;;
11998;SDS011;40817;51.520;9.954;2022-10-22T08:54:46;10.10;;;4.63;;
11998;SDS011;40817;51.520;9.954;2022-10-22T08:57:25;6.20;;;3.60;;
11998;SDS011;40817;51.520;9.954;2022-10-22T09:00:24;6.25;;;3.22;;
11998;SDS011;40817;51.520;9.954;2022-10-22T09:03:16;4.18;;;3.05;;
11998;SDS011;40817;51.520;9.954;2022-10-22T09:06:06;5.20;;;3.20;;
11998;SDS011;40817;51.520;9.954;2022-10-22T09:08:40;8.02;;;2.92;;
11998;SDS011;40817;51.520;9.954;2022-10-22T09:11:21;9.05;;;3.25;;
11998;SDS011;40817;51.520;9.954;2022-10-22T09:13:54;4.55;;;2.78;;
11998;SDS011;40817;51.520;9.954;2022-10-22T09:16:24;6.55;;;2.15;;
11998;SDS011;40817;51.520;9.954;2022-10-22T09:19:06;5.22;;;2.35;;
11998;SDS011;40817;51.520;9.954;2022-10-22T09:21:49;4.03;;;2.00;;
11998;SDS011;40817;51.520;9.954;2022-10-22T09:24:30;3.45;;;2.08;;
11998;SDS011;40817;51.520;9.954;2022-10-22T09:27:12;5.07;;;1.80;;
11998;SDS011;40817;51.520;9.954;2022-10-22T09:29:44;4.30;;;1.63;;
11998;SDS011;40817;51.520;9.954;2022-10-22T09:32:14;4.45;;;1.52;;
11998;SDS011;40817;51.520;9.954;2022-10-22T09:34:42;2.92;;;1.48;;
11998;SDS011;40817;51.520;9.954;2022-10-22T09:37:10;10.80;;;1.85;;
11998;SDS011;40817;51.520;9.954;2022-10-22T09:39:43;4.35;;;1.58;;
11998;SDS011;40817;51.520;9.954;2022-10-22T09:42:15;7.60;;;2.53;;
11998;SDS011;40817;51.520;9.954;2022-10-22T09:44:50;4.47;;;1.85;;
11998;SDS011;40817;51.520;9.954;2022-10-22T09:50:11;6.88;;;1.92;;
11998;SDS011;40817;51.520;9.954;2022-10-22T09:52:58;5.63;;;2.22;;
11998;SDS011;40817;51.520;9.954;2022-10-22T09:55:38;5.43;;;2.42;;
11998;SDS011;40817;51.520;9.954;2022-10-22T09:58:10;6.63;;;2.45;;
11998;SDS011;40817;51.520;9.954;2022-10-22T10:03:17;5.80;;;2.28;;
11998;SDS011;40817;51.520;9.954;2022-10-22T10:05:51;4.88;;;2.75;;
11998;SDS011;40817;51.520;9.954;2022-10-22T10:08:23;3.72;;;2.42;;
11998;SDS011;40817;51.520;9.954;2022-10-22T10:10:51;5.80;;;2.55;;
11998;SDS011;40817;51.520;9.954;2022-10-22T10:13:37;6.03;;;3.03;;
11998;SDS011;40817;51.520;9.954;2022-10-22T10:16:25;5.60;;;2.60;;
11998;SDS011;40817;51.520;9.954;2022-10-22T10:19:24;5.50;;;2.20;;
11998;SDS011;40817;51.520;9.954;2022-10-22T10:22:12;8.40;;;2.58;;
11998;SDS011;40817;51.520;9.954;2022-10-22T10:25:02;6.65;;;2.35;;
11998;SDS011;40817;51.520;9.954;2022-10-22T10:27:59;3.38;;;2.13;;
11998;SDS011;40817;51.520;9.954;2022-10-22T10:30:43;7.50;;;2.42;;
11998;SDS011;40817;51.520;9.954;2022-10-22T10:33:27;9.40;;;2.50;;
11998;SDS011;40817;51.520;9.954;2022-10-22T10:36:08;5.30;;;2.47;;
11998;SDS011;40817;51.520;9.954;2022-10-22T10:38:49;4.15;;;2.38;;
11998;SDS011;40817;51.520;9.954;2022-10-22T10:41:27;6.60;;;2.55;;
11998;SDS011;40817;51.520;9.954;2022-10-22T10:47:32;7.53;;;2.25;;
11998;SDS011;40817;51.520;9.954;2022-10-22T10:50:39;5.57;;;2.88;;
11998;SDS011;40817;51.520;9.954;2022-10-22T10:53:33;4.97;;;2.00;;
11998;SDS011;40817;51.520;9.954;2022-10-22T10:56:27;7.55;;;2.10;;
11998;SDS011;40817;51.520;9.954;2022-10-22T10:59:09;7.60;;;2.40;;
11998;SDS011;40817;51.520;9.954;2022-10-22T11:01:52;3.55;;;1.98;;
11998;SDS011;40817;51.520;9.954;2022-10-22T11:04:46;5.30;;;2.20;;
11998;SDS011;40817;51.520;9.954;2022-10-22T11:07:53;4.70;;;2.25;;
11998;SDS011;40817;51.520;9.954;2022-10-22T11:10:30;4.55;;;1.80;;
11998;SDS011;40817;51.520;9.954;2022-10-22T11:13:05;8.60;;;2.30;;
11998;SDS011;40817;51.520;9.954;2022-10-22T11:15:45;6.03;;;2.13;;
11998;SDS011;40817;51.520;9.954;2022-10-22T11:18:21;5.63;;;2.10;;
11998;SDS011;40817;51.520;9.954;2022-10-22T11:21:04;5.53;;;2.53;;
11998;SDS011;40817;51.520;9.954;2022-10-22T11:23:45;5.43;;;1.83;;
11998;SDS011;40817;51.520;9.954;2022-10-22T11:26:35;4.03;;;1.75;;
11998;SDS011;40817;51.520;9.954;2022-10-22T11:29:12;5.70;;;1.95;;
11998;SDS011;40817;51.520;9.954;2022-10-22T11:31:48;4.43;;;1.70;;
11998;SDS011;40817;51.520;9.954;2022-10-22T11:34:23;5.72;;;1.48;;
11998;SDS011;40817;51.520;9.954;2022-10-22T11:36:58;5.90;;;1.88;;
11998;SDS011;40817;51.520;9.954;2022-10-22T11:39:31;7.32;;;1.83;;
11998;SDS011;40817;51.520;9.954;2022-10-22T11:42:08;7.35;;;2.20;;
11998;SDS011;40817;51.520;9.954;2022-10-22T11:44:44;8.38;;;2.92;;
11998;SDS011;40817;51.520;9.954;2022-10-22T11:47:23;6.97;;;1.95;;
11998;SDS011;40817;51.520;9.954;2022-10-22T11:49:54;3.55;;;1.60;;
11998;SDS011;40817;51.520;9.954;2022-10-22T11:52:39;5.47;;;1.70;;
11998;SDS011;40817;51.520;9.954;2022-10-22T11:58:26;5.43;;;1.70;;
11998;SDS011;40817;51.520;9.954;2022-10-22T12:04:16;4.65;;;1.80;;
11998;SDS011;40817;51.520;9.954;2022-10-22T12:06:52;3.60;;;1.70;;
11998;SDS011;40817;51.520;9.954;2022-10-22T12:09:25;6.18;;;1.80;;
11998;SDS011;40817;51.520;9.954;2022-10-22T12:14:50;5.82;;;1.55;;
11998;SDS011;40817;51.520;9.954;2022-10-22T12:17:22;3.75;;;1.58;;
11998;SDS011;40817;51.520;9.954;2022-10-22T12:19:50;6.10;;;2.03;;
11998;SDS011;40817;51.520;9.954;2022-10-22T12:22:26;4.80;;;1.50;;
11998;SDS011;40817;51.520;9.954;2022-10-22T12:25:00;4.22;;;1.30;;
11998;SDS011;40817;51.520;9.954;2022-10-22T12:27:35;4.97;;;1.77;;
11998;SDS011;40817;51.520;9.954;2022-10-22T12:30:15;2.95;;;1.45;;
11998;SDS011;40817;51.520;9.954;2022-10-22T12:32:49;8.43;;;1.67;;
11998;SDS011;40817;51.520;9.954;2022-10-22T12:35:21;3.63;;;1.20;;
11998;SDS011;40817;51.520;9.954;2022-10-22T12:37:53;4.05;;;1.60;;
11998;SDS011;40817;51.520;9.954;2022-10-22T12:40:25;6.15;;;1.60;;
11998;SDS011;40817;51.520;9.954;2022-10-22T12:42:55;6.88;;;1.60;;
11998;SDS011;40817;51.520;9.954;2022-10-22T12:45:26;6.78;;;1.60;;
11998;SDS011;40817;51.520;9.954;2022-10-22T12:47:56;6.82;;;1.60;;
11998;SDS011;40817;51.520;9.954;2022-10-22T12:50:28;5.07;;;1.92;;
11998;SDS011;40817;51.520;9.954;2022-10-22T12:53:03;4.53;;;1.48;;
11998;SDS011;40817;51.520;9.954;2022-10-22T12:55:33;4.80;;;1.80;;
11998;SDS011;40817;51.520;9.954;2022-10-22T12:58:03;4.45;;;1.60;;
11998;SDS011;40817;51.520;9.954;2022-10-22T13:00:36;5.85;;;1.83;;
11998;SDS011;40817;51.520;9.954;2022-10-22T13:03:05;3.88;;;1.50;;
11998;SDS011;40817;51.520;9.954;2022-10-22T13:05:33;7.65;;;1.88;;
11998;SDS011;40817;51.520;9.954;2022-10-22T13:08:04;6.47;;;2.22;;
11998;SDS011;40817;51.520;9.954;2022-10-22T13:10:39;8.65;;;1.80;;
11998;SDS011;40817;51.520;9.954;2022-10-22T13:13:28;3.50;;;1.70;;
11998;SDS011;40817;51.520;9.954;2022-10-22T13:16:15;5.65;;;1.50;;
11998;SDS011;40817;51.520;9.954;2022-10-22T13:18:48;6.30;;;1.67;;
11998;SDS011;40817;51.520;9.954;2022-10-22T13:21:22;4.68;;;1.70;;
11998;SDS011;40817;51.520;9.954;2022-10-22T13:23:58;4.88;;;1.88;;
11998;SDS011;40817;51.520;9.954;2022-10-22T13:26:31;8.98;;;2.45;;
11998;SDS011;40817;51.520;9.954;2022-10-22T13:29:08;8.32;;;2.17;;
11998;SDS011;40817;51.520;9.954;2022-10-22T13:31:43;8.50;;;1.88;;
11998;SDS011;40817;51.520;9.954;2022-10-22T13:34:14;9.10;;;2.15;;
11998;SDS011;40817;51.520;9.954;2022-10-22T13:36:45;5.78;;;1.50;;
11998;SDS011;40817;51.520;9.954;2022-10-22T13:39:15;4.28;;;1.63;;
11998;SDS011;40817;51.520;9.954;2022-10-22T13:41:46;7.85;;;2.05;;
11998;SDS011;40817;51.520;9.954;2022-10-22T13:44:15;5.03;;;2.05;;
11998;SDS011;40817;51.520;9.954;2022-10-22T13:46:42;7.60;;;1.70;;
11998;SDS011;40817;51.520;9.954;2022-10-22T13:49:11;4.68;;;1.23;;
11998;SDS011;40817;51.520;9.954;2022-10-22T13:51:43;3.78;;;1.30;;
11998;SDS011;40817;51.520;9.954;2022-10-22T13:54:12;4.22;;;1.73;;
11998;SDS011;40817;51.520;9.954;2022-10-22T13:56:45;8.30;;;1.98;;
11998;SDS011;40817;51.520;9.954;2022-10-22T13:59:13;8.00;;;1.98;;
11998;SDS011;40817;51.520;9.954;2022-10-22T14:01:41;5.20;;;2.10;;
11998;SDS011;40817;51.520;9.954;2022-10-22T14:04:09;9.02;;;2.17;;
11998;SDS011;40817;51.520;9.954;2022-10-22T14:06:39;7.80;;;1.48;;
11998;SDS011;40817;51.520;9.954;2022-10-22T14:09:09;7.43;;;2.15;;
11998;SDS011;40817;51.520;9.954;2022-10-22T14:11:40;5.35;;;1.65;;
11998;SDS011;40817;51.520;9.954;2022-10-22T14:14:10;6.53;;;1.60;;
11998;SDS011;40817;51.520;9.954;2022-10-22T14:16:41;5.13;;;1.63;;
11998;SDS011;40817;51.520;9.954;2022-10-22T14:19:09;6.90;;;1.63;;
11998;SDS011;40817;51.520;9.954;2022-10-22T14:21:42;6.50;;;1.88;;
11998;SDS011;40817;51.520;9.954;2022-10-22T14:24:10;7.88;;;1.50;;
11998;SDS011;40817;51.520;9.954;2022-10-22T14:26:37;6.38;;;1.77;;
11998;SDS011;40817;51.520;9.954;2022-10-22T14:29:05;5.82;;;1.42;;
11998;SDS011;40817;51.520;9.954;2022-10-22T14:31:35;3.85;;;1.13;;
11998;SDS011;40817;51.520;9.954;2022-10-22T14:34:03;4.30;;;1.40;;
11998;SDS011;40817;51.520;9.954;2022-10-22T14:36:30;4.18;;;1.90;;
11998;SDS011;40817;51.520;9.954;2022-10-22T14:38:58;4.10;;;1.25;;
11998;SDS011;40817;51.520;9.954;2022-10-22T14:41:25;4.95;;;1.33;;
11998;SDS011;40817;51.520;9.954;2022-10-22T14:43:55;4.07;;;1.20;;
11998;SDS011;40817;51.520;9.954;2022-10-22T14:46:24;16.17;;;1.30;;
11998;SDS011;40817;51.520;9.954;2022-10-22T14:48:52;4.05;;;1.40;;
11998;SDS011;40817;51.520;9.954;2022-10-22T14:51:20;5.18;;;1.10;;
11998;SDS011;40817;51.520;9.954;2022-10-22T14:53:48;5.03;;;1.00;;
11998;SDS011;40817;51.520;9.954;2022-10-22T14:56:16;5.35;;;1.20;;
11998;SDS011;40817;51.520;9.954;2022-10-22T14:58:46;5.65;;;1.00;;
11998;SDS011;40817;51.520;9.954;2022-10-22T15:01:14;4.97;;;1.13;;
11998;SDS011;40817;51.520;9.954;2022-10-22T15:03:42;4.65;;;1.00;;
11998;SDS011;40817;51.520;9.954;2022-10-22T15:06:10;4.38;;;1.20;;
11998;SDS011;40817;51.520;9.954;2022-10-22T15:08:38;6.68;;;1.35;;
11998;SDS011;40817;51.520;9.954;2022-10-22T15:11:07;3.08;;;1.10;;
11998;SDS011;40817;51.520;9.954;2022-10-22T15:13:37;3.30;;;1.20;;
11998;SDS011;40817;51.520;9.954;2022-10-22T15:16:07;3.25;;;0.68;;
11998;SDS011;40817;51.520;9.954;2022-10-22T15:18:38;11.43;;;1.65;;
11998;SDS011;40817;51.520;9.954;2022-10-22T15:21:06;3.65;;;1.25;;
11998;SDS011;40817;51.520;9.954;2022-10-22T15:23:47;5.70;;;0.90;;
11998;SDS011;40817;51.520;9.954;2022-10-22T15:26:14;5.95;;;1.25;;
11998;SDS011;40817;51.520;9.954;2022-10-22T15:28:42;7.28;;;1.40;;
11998;SDS011;40817;51.520;9.954;2022-10-22T15:31:11;6.45;;;1.17;;
11998;SDS011;40817;51.520;9.954;2022-10-22T15:33:40;3.28;;;1.02;;
11998;SDS011;40817;51.520;9.954;2022-10-22T15:36:08;5.22;;;1.25;;
11998;SDS011;40817;51.520;9.954;2022-10-22T15:38:41;4.32;;;1.30;;